createdAt,value
2023-01-13T00:01:14.727Z,75.79
2023-01-13T00:06:28.149Z,75.94
2023-01-13T00:11:38.279Z,75.91
2023-01-13T00:16:50.212Z,75.92
2023-01-13T00:22:05.342Z,76.06
2023-01-13T00:27:12.993Z,76.09
2023-01-13T00:32:19.995Z,76.34
2023-01-13T00:37:27.422Z,76.41
2023-01-13T00:42:52.234Z,76.83
2023-01-13T00:47:59.342Z,77.00
2023-01-13T00:53:06.436Z,77.27
2023-01-13T00:58:13.980Z,77.53
2023-01-13T01:03:23.900Z,77.61
2023-01-13T01:08:30.897Z,77.57
2023-01-13T01:13:39.398Z,77.87
2023-01-13T01:18:49.340Z,77.94
2023-01-13T01:23:57.530Z,77.94
2023-01-13T01:29:04.844Z,77.98
2023-01-13T01:34:12.063Z,77.68
2023-01-13T01:39:18.985Z,77.66
2023-01-13T01:44:56.310Z,77.39
2023-01-13T01:50:05.302Z,77.36
2023-01-13T01:55:15.837Z,77.19
2023-01-13T02:00:23.777Z,77.05
2023-01-13T02:05:30.979Z,76.96
2023-01-13T02:10:39.459Z,76.60
2023-01-13T02:15:56.240Z,76.39
2023-01-13T02:21:40.683Z,76.05
2023-01-13T02:27:27.296Z,76.23
2023-01-13T02:32:41.008Z,76.40
2023-01-13T02:37:49.814Z,76.13
2023-01-13T02:43:25.515Z,76.20
2023-01-13T02:48:42.739Z,76.19
2023-01-13T02:54:04.590Z,76.05
2023-01-13T02:59:24.095Z,76.02
2023-01-13T03:04:54.434Z,75.81
2023-01-13T03:10:08.526Z,75.18
2023-01-13T03:15:24.573Z,74.75
2023-01-13T03:20:36.276Z,74.80
2023-01-13T03:25:52.001Z,74.55
2023-01-13T03:31:04.548Z,74.90
2023-01-13T03:36:15.463Z,75.60
2023-01-13T03:41:28.689Z,75.95
2023-01-13T03:46:46.304Z,75.92
2023-01-13T03:51:57.465Z,76.05
2023-01-13T03:57:10.740Z,76.09
2023-01-13T04:02:18.622Z,76.07
2023-01-13T04:07:34.032Z,75.74
2023-01-13T04:13:05.182Z,75.81
2023-01-13T04:18:15.345Z,75.85
2023-01-13T04:23:23.797Z,75.95
2023-01-13T04:28:30.802Z,75.93
2023-01-13T04:33:37.755Z,75.97
2023-01-13T04:38:44.660Z,75.99
2023-01-13T04:43:51.696Z,75.98
2023-01-13T04:48:58.571Z,75.95
2023-01-13T04:54:06.026Z,75.98
2023-01-13T04:59:15.461Z,75.76
2023-01-13T05:04:22.409Z,75.70
2023-01-13T05:09:29.669Z,75.38
2023-01-13T05:14:54.291Z,75.21
2023-01-13T05:20:01.737Z,75.06
2023-01-13T05:25:25.407Z,74.56
2023-01-13T05:30:35.061Z,74.28
2023-01-13T05:35:43.503Z,74.20
2023-01-13T05:41:08.367Z,74.05
2023-01-13T05:46:17.880Z,74.06
2023-01-13T05:51:26.503Z,74.51
2023-01-13T05:56:34.341Z,74.45
2023-01-13T06:01:41.336Z,74.48
2023-01-13T06:06:48.998Z,74.51
2023-01-13T06:11:55.933Z,74.44
2023-01-13T06:17:03.088Z,74.51
2023-01-13T06:22:16.805Z,74.77
2023-01-13T06:27:24.415Z,74.71
2023-01-13T06:32:35.098Z,74.54
2023-01-13T06:37:43.928Z,74.45
2023-01-13T06:43:10.235Z,74.28
2023-01-13T06:48:17.690Z,74.21
2023-01-13T06:53:24.616Z,74.12
2023-01-13T06:58:31.489Z,74.15
2023-01-13T07:03:38.958Z,73.78
2023-01-13T07:08:45.877Z,73.70
2023-01-13T07:14:09.977Z,73.53
2023-01-13T07:19:23.261Z,73.34
2023-01-13T07:24:30.252Z,73.27
2023-01-13T07:29:38.008Z,72.98
2023-01-13T07:34:45.101Z,73.17
2023-01-13T07:39:52.280Z,72.99
2023-01-13T07:44:59.256Z,73.12
2023-01-13T07:50:06.941Z,73.22
2023-01-13T07:55:13.999Z,73.36
2023-01-13T08:00:22.609Z,73.35
2023-01-13T08:05:29.725Z,73.38
2023-01-13T08:10:37.604Z,73.46
2023-01-13T08:15:44.935Z,73.30
2023-01-13T08:20:53.403Z,73.18
2023-01-13T08:26:04.822Z,73.04
2023-01-13T08:31:14.550Z,72.87
2023-01-13T08:36:21.624Z,72.40
2023-01-13T08:41:51.502Z,72.29
2023-01-13T08:46:58.973Z,71.93
2023-01-13T08:52:05.961Z,71.88
2023-01-13T08:57:13.230Z,72.05
2023-01-13T09:02:22.976Z,72.39
2023-01-13T09:07:30.031Z,71.75
2023-01-13T09:12:54.890Z,72.01
2023-01-13T09:18:02.782Z,71.79
2023-01-13T09:23:10.898Z,71.96
2023-01-13T09:28:18.194Z,73.25
2023-01-13T09:33:42.935Z,74.95
2023-01-13T09:38:51.761Z,76.30
2023-01-13T09:44:02.712Z,76.39
2023-01-13T09:49:16.024Z,75.84
2023-01-13T09:54:32.480Z,75.30
2023-01-13T09:59:39.891Z,74.96
2023-01-13T10:05:03.005Z,73.96
2023-01-13T10:10:18.880Z,74.48
2023-01-13T10:15:28.549Z,74.96
2023-01-13T10:20:43.172Z,75.04
2023-01-13T10:25:59.926Z,74.49
2023-01-13T10:31:13.422Z,74.51
2023-01-13T10:36:21.641Z,74.25
2023-01-13T10:41:30.213Z,73.89
2023-01-13T10:46:52.841Z,73.20
2023-01-13T10:51:59.911Z,72.73
2023-01-13T10:57:22.811Z,72.54
2023-01-13T11:02:32.360Z,71.61
2023-01-13T11:07:42.201Z,71.64
2023-01-13T11:12:58.810Z,71.58
2023-01-13T11:18:14.771Z,71.64
2023-01-13T11:23:28.815Z,71.26
2023-01-13T11:28:43.252Z,71.10
2023-01-13T11:33:55.661Z,70.83
2023-01-13T11:39:12.255Z,71.28
2023-01-13T11:44:24.685Z,70.87
2023-01-13T11:49:34.336Z,70.46
2023-01-13T11:55:22.428Z,69.51
2023-01-13T12:00:52.001Z,69.79
2023-01-13T12:06:27.800Z,69.07
2023-01-13T12:12:01.249Z,69.09
2023-01-13T12:17:15.093Z,69.04
2023-01-13T12:22:27.577Z,68.34
2023-01-13T12:27:47.143Z,69.15
2023-01-13T12:32:57.281Z,69.77
2023-01-13T12:38:09.843Z,69.90
2023-01-13T12:43:39.038Z,70.29
2023-01-13T12:49:04.773Z,70.30
2023-01-13T12:54:56.296Z,69.07
2023-01-13T13:00:18.524Z,68.93
2023-01-13T13:05:49.271Z,69.28
2023-01-13T13:11:31.145Z,68.10
2023-01-13T13:16:49.864Z,68.39
2023-01-13T13:22:30.943Z,68.85
2023-01-13T13:27:46.824Z,68.87
2023-01-13T13:33:04.759Z,69.28
2023-01-13T13:38:44.505Z,69.33
2023-01-13T13:44:10.056Z,69.34
2023-01-13T13:49:19.422Z,69.10
2023-01-13T13:54:26.811Z,69.41
2023-01-13T13:59:34.559Z,69.31
2023-01-13T14:04:41.731Z,69.30
2023-01-13T14:09:50.724Z,69.65
2023-01-13T14:14:59.919Z,69.73
2023-01-13T14:20:15.615Z,70.11
2023-01-13T14:25:36.710Z,71.58
2023-01-13T14:30:45.095Z,74.57
2023-01-13T14:36:24.742Z,76.66
2023-01-13T14:41:36.789Z,77.38
2023-01-13T14:46:46.498Z,78.36
2023-01-13T14:51:54.294Z,78.96
2023-01-13T14:57:16.054Z,79.55
2023-01-13T15:02:44.009Z,80.06
2023-01-13T15:07:54.641Z,79.92
2023-01-13T15:13:04.124Z,79.71
2023-01-13T15:18:17.118Z,80.40
2023-01-13T15:23:24.745Z,81.06
2023-01-13T15:28:34.313Z,81.82
2023-01-13T15:33:41.911Z,82.12
2023-01-13T15:38:48.930Z,82.05
2023-01-13T15:44:13.715Z,81.52
2023-01-13T15:49:26.776Z,81.95
2023-01-13T15:54:33.968Z,81.78
2023-01-13T15:59:41.181Z,81.53
2023-01-13T16:04:48.457Z,81.37
2023-01-13T16:09:55.850Z,81.02
2023-01-13T16:15:02.697Z,80.93
2023-01-13T16:20:16.623Z,80.71
2023-01-13T16:25:25.422Z,80.78
2023-01-13T16:30:34.616Z,81.02
2023-01-13T16:36:08.757Z,80.73
2023-01-13T16:41:09.360Z,80.91
2023-01-13T16:46:23.372Z,79.81
2023-01-13T16:51:31.424Z,79.50
2023-01-13T16:56:40.837Z,79.70
2023-01-13T17:01:47.850Z,80.15
2023-01-13T17:07:00.450Z,80.29
2023-01-13T17:12:07.789Z,80.39
2023-01-13T17:17:23.940Z,80.31
2023-01-13T17:22:31.620Z,80.12
2023-01-13T17:27:38.565Z,79.82
2023-01-13T17:32:46.619Z,80.13
2023-01-13T17:37:56.972Z,79.93
2023-01-13T17:43:04.116Z,79.53
2023-01-13T17:48:12.672Z,79.68
2023-01-13T17:53:19.747Z,79.81
2023-01-13T17:58:27.602Z,80.03
2023-01-13T18:03:34.548Z,79.89
2023-01-13T18:08:41.615Z,80.23
2023-01-13T18:13:49.778Z,80.17
2023-01-13T18:19:18.331Z,80.55
2023-01-13T18:24:42.825Z,80.57
2023-01-13T18:29:51.565Z,80.64
2023-01-13T18:35:05.801Z,80.91
2023-01-13T18:40:15.247Z,81.16
2023-01-13T18:45:24.496Z,81.12
2023-01-13T18:50:32.623Z,80.86
2023-01-13T18:55:41.273Z,80.75
2023-01-13T19:00:48.295Z,80.36
2023-01-13T19:06:02.161Z,80.14
2023-01-13T19:11:09.595Z,79.80
2023-01-13T19:16:17.721Z,79.75
2023-01-13T19:21:25.405Z,79.82
2023-01-13T19:26:32.451Z,79.79
2023-01-13T19:31:39.549Z,79.71
2023-01-13T19:36:46.673Z,79.59
2023-01-13T19:42:11.515Z,79.64
2023-01-13T19:47:18.967Z,79.67
2023-01-13T19:52:26.224Z,79.64
2023-01-13T19:57:33.300Z,79.68
2023-01-13T20:02:47.887Z,79.78
2023-01-13T20:07:55.189Z,80.02
2023-01-13T20:13:02.159Z,80.44
2023-01-13T20:18:10.544Z,80.62
2023-01-13T20:23:17.627Z,80.44
2023-01-13T20:28:24.617Z,80.22
2023-01-13T20:33:32.005Z,80.24
2023-01-13T20:38:40.639Z,80.10
2023-01-13T20:43:52.788Z,79.83
2023-01-13T20:49:00.648Z,80.20
2023-01-13T20:54:09.459Z,80.31
2023-01-13T20:59:17.330Z,80.56
2023-01-13T21:04:24.602Z,80.52
2023-01-13T21:09:32.396Z,80.68
2023-01-13T21:14:56.940Z,80.05
2023-01-13T21:20:04.685Z,78.81
2023-01-13T21:25:13.506Z,77.41
2023-01-13T21:30:21.018Z,76.57
2023-01-13T21:35:28.267Z,76.36
2023-01-13T21:40:35.100Z,75.86
2023-01-13T21:46:00.495Z,75.97
2023-01-13T21:51:08.197Z,76.02
2023-01-13T21:56:16.469Z,76.17
2023-01-13T22:01:23.759Z,76.15
2023-01-13T22:06:31.275Z,76.47
2023-01-13T22:11:38.491Z,76.55
2023-01-13T22:16:49.794Z,76.62
2023-01-13T22:21:57.199Z,76.56
2023-01-13T22:27:04.386Z,76.69
2023-01-13T22:32:11.465Z,76.73
2023-01-13T22:37:18.577Z,76.53
2023-01-13T22:42:25.541Z,76.10
2023-01-13T22:47:32.457Z,75.84
2023-01-13T22:52:39.917Z,75.61
2023-01-13T22:57:48.463Z,75.60
2023-01-13T23:02:55.613Z,75.16
2023-01-13T23:08:02.744Z,74.75
2023-01-13T23:13:09.978Z,74.26
2023-01-13T23:18:17.009Z,74.36
2023-01-13T23:23:25.446Z,73.88
2023-01-13T23:28:33.514Z,73.51
2023-01-13T23:33:41.407Z,73.22
2023-01-13T23:38:48.727Z,73.12
2023-01-13T23:43:56.889Z,73.00
2023-01-13T23:49:04.887Z,73.37
2023-01-13T23:54:12.093Z,73.25
2023-01-13T23:59:19.045Z,73.73
